Time;durP1;ratioP1;P1;durP2;ratioP2;P2;SDS_P1;SDS_P2;PMS_P1;PMS_P2;Temp;Humidity;BMP_temperature;BMP_pressure;BME280_temperature;BME280_humidity;BME280_pressure;Samples;Min_cycle;Max_cycle;Signal;HPM_P1;HPM_P2
2022/03/03 00:01:15;;;;;;;8.85;6.93;;;14.90;35.70;;;;;;5148742;27;46882;-19
2022/03/03 00:03:41;;;;;;;9.77;7.63;;;14.80;35.60;;;;;;5149058;27;46907;-20
2022/03/03 00:06:09;;;;;;;8.88;6.88;;;14.80;35.60;;;;;;5149091;27;48189;-20
2022/03/03 00:08:36;;;;;;;9.02;7.05;;;14.90;35.70;;;;;;5148895;27;47017;-20
2022/03/03 00:11:03;;;;;;;8.10;7.10;;;14.80;35.60;;;;;;5148651;27;46850;-20
2022/03/03 00:13:30;;;;;;;10.18;6.88;;;14.80;35.60;;;;;;5149338;27;47311;-20
2022/03/03 00:15:56;;;;;;;9.32;7.28;;;14.80;35.70;;;;;;5148615;27;46904;-20
2022/03/03 00:18:23;;;;;;;11.05;6.97;;;14.80;35.70;;;;;;5148664;27;46845;-20
2022/03/03 00:20:50;;;;;;;8.77;6.57;;;14.80;35.70;;;;;;5148615;27;46892;-20
2022/03/03 00:23:18;;;;;;;9.80;7.18;;;14.80;35.70;;;;;;5149218;27;46898;-20
2022/03/03 00:25:44;;;;;;;7.93;6.72;;;14.70;35.70;;;;;;5148310;27;47846;-19
2022/03/03 00:28:11;;;;;;;9.32;7.57;;;14.70;35.70;;;;;;5148558;27;46896;-15
2022/03/03 00:30:38;;;;;;;8.20;6.30;;;14.70;35.70;;;;;;5148808;27;46818;-15
2022/03/03 00:33:04;;;;;;;7.80;6.97;;;14.70;35.80;;;;;;5148589;27;46885;-15
2022/03/03 00:35:32;;;;;;;9.38;6.70;;;14.60;35.80;;;;;;5148625;27;47833;-15
2022/03/03 00:37:58;;;;;;;9.57;7.10;;;14.60;35.80;;;;;;5148268;27;46818;-15
2022/03/03 00:40:26;;;;;;;7.47;6.68;;;14.60;35.80;;;;;;5148132;27;46878;-14
2022/03/03 00:42:53;;;;;;;9.85;7.10;;;14.60;35.90;;;;;;5148767;27;46863;-14
2022/03/03 00:45:20;;;;;;;7.22;6.38;;;14.60;35.90;;;;;;5148193;27;48809;-15
2022/03/03 00:47:46;;;;;;;8.95;6.85;;;14.50;35.90;;;;;;5148199;27;47063;-14
2022/03/03 00:50:13;;;;;;;9.50;7.15;;;14.50;35.90;;;;;;5148365;27;47028;-19
2022/03/03 00:52:40;;;;;;;8.98;6.80;;;14.50;36.00;;;;;;5148665;27;46918;-15
2022/03/03 00:55:07;;;;;;;7.35;6.45;;;14.50;36.00;;;;;;5147938;27;48750;-15
2022/03/03 00:57:35;;;;;;;8.90;6.45;;;14.40;36.00;;;;;;5148108;27;46864;-15
2022/03/03 01:00:03;;;;;;;9.18;7.07;;;14.40;36.00;;;;;;5148242;27;46948;-15
2022/03/03 01:02:30;;;;;;;8.30;7.13;;;14.40;36.00;;;;;;5148593;27;46931;-15
2022/03/03 01:04:56;;;;;;;8.57;6.72;;;14.40;36.00;;;;;;5147811;27;47822;-15
2022/03/03 01:07:23;;;;;;;8.50;6.30;;;14.40;36.10;;;;;;5148498;27;46994;-15
2022/03/03 01:09:50;;;;;;;8.93;6.43;;;14.30;36.00;;;;;;5147396;27;47009;-15
2022/03/03 01:12:16;;;;;;;9.38;6.35;;;14.30;36.10;;;;;;5148493;27;46899;-15
2022/03/03 01:14:44;;;;;;;8.60;6.78;;;14.30;36.10;;;;;;5147524;27;48076;-15
2022/03/03 01:17:11;;;;;;;8.05;6.53;;;14.30;36.10;;;;;;5147973;27;47142;-15
2022/03/03 01:19:38;;;;;;;7.53;6.40;;;14.30;36.20;;;;;;5147870;27;46742;-14
2022/03/03 01:22:05;;;;;;;7.93;6.65;;;14.30;36.20;;;;;;5147933;27;46895;-15
2022/03/03 01:24:32;;;;;;;7.80;6.05;;;14.20;36.20;;;;;;5147782;27;48255;-14
2022/03/03 01:26:58;;;;;;;9.35;7.22;;;14.20;36.20;;;;;;5147890;27;46910;-15
2022/03/03 01:29:25;;;;;;;9.25;7.10;;;14.20;36.20;;;;;;5147310;27;46993;-15
2022/03/03 01:31:53;;;;;;;8.45;6.55;;;14.20;36.30;;;;;;5148133;27;47070;-15
2022/03/03 01:34:20;;;;;;;7.88;6.22;;;14.20;36.30;;;;;;5147511;27;48861;-15
2022/03/03 01:36:46;;;;;;;8.45;6.50;;;14.20;36.30;;;;;;5147878;27;46839;-15
2022/03/03 01:39:13;;;;;;;9.25;6.53;;;14.10;36.20;;;;;;5147722;27;47150;-15
2022/03/03 01:41:41;;;;;;;10.13;6.78;;;14.10;36.30;;;;;;5147954;27;46876;-15
2022/03/03 01:44:09;;;;;;;8.48;6.72;;;14.10;36.30;;;;;;5147418;27;48174;-14
2022/03/03 01:46:35;;;;;;;8.32;6.32;;;14.10;36.30;;;;;;5147318;27;46865;-19
2022/03/03 01:49:03;;;;;;;7.57;6.00;;;14.10;36.40;;;;;;5147572;27;46915;-20
2022/03/03 01:51:30;;;;;;;7.95;6.85;;;14.00;36.40;;;;;;5147980;27;47303;-20
2022/03/03 01:53:57;;;;;;;9.48;7.05;;;14.00;36.30;;;;;;5147148;27;46982;-20
2022/03/03 01:56:23;;;;;;;7.97;6.60;;;14.00;36.40;;;;;;5147239;27;46779;-20
2022/03/03 01:58:50;;;;;;;8.05;6.25;;;14.00;36.40;;;;;;5147784;27;46914;-15
2022/03/03 02:01:17;;;;;;;7.28;6.32;;;14.00;36.40;;;;;;5147495;27;46903;-16
2022/03/03 02:03:43;;;;;;;7.13;6.15;;;14.00;36.40;;;;;;5147086;27;49077;-14
2022/03/03 02:06:11;;;;;;;8.75;6.15;;;13.90;36.40;;;;;;5147324;27;46848;-15
2022/03/03 02:08:38;;;;;;;8.57;6.20;;;13.90;36.40;;;;;;5147212;27;46956;-15
2022/03/03 02:11:05;;;;;;;8.77;6.40;;;13.90;36.40;;;;;;5147712;27;46808;-15
2022/03/03 02:13:32;;;;;;;8.48;6.80;;;13.90;36.50;;;;;;5147259;27;48020;-15
2022/03/03 02:15:58;;;;;;;8.15;6.22;;;13.90;36.50;;;;;;5147090;27;47208;-14
2022/03/03 02:18:25;;;;;;;8.45;6.80;;;13.80;36.40;;;;;;5147352;27;46965;-14
2022/03/03 02:20:53;;;;;;;7.68;6.45;;;13.80;36.40;;;;;;5147157;27;46910;-15
2022/03/03 02:23:20;;;;;;;7.35;5.70;;;13.80;36.40;;;;;;5147176;27;48235;-15
2022/03/03 02:25:47;;;;;;;8.57;6.60;;;13.80;36.50;;;;;;5148851;27;47191;-15
2022/03/03 02:28:13;;;;;;;7.78;6.45;;;13.80;36.50;;;;;;5150827;27;46885;-15
2022/03/03 02:30:40;;;;;;;7.43;6.00;;;13.70;36.50;;;;;;5150469;27;47104;-14
2022/03/03 02:33:07;;;;;;;7.57;6.03;;;13.70;36.50;;;;;;5150668;27;48238;-16
2022/03/03 02:35:34;;;;;;;7.50;6.30;;;13.70;36.50;;;;;;5150256;27;47020;-15
2022/03/03 02:38:02;;;;;;;8.43;5.67;;;13.80;36.50;;;;;;5150340;27;46796;-14
2022/03/03 02:40:29;;;;;;;8.18;6.45;;;13.90;36.30;;;;;;5150211;27;47093;-20
2022/03/03 02:42:56;;;;;;;7.70;6.47;;;14.00;36.20;;;;;;5150381;27;47903;-15
2022/03/03 02:45:22;;;;;;;6.38;5.78;;;14.10;35.90;;;;;;5150464;27;46834;-15
2022/03/03 02:47:50;;;;;;;9.13;6.57;;;14.10;35.80;;;;;;5150212;27;47011;-15
2022/03/03 02:50:17;;;;;;;7.47;6.07;;;14.30;35.70;;;;;;5150588;27;47302;-15
2022/03/03 02:52:44;;;;;;;8.32;5.93;;;14.30;35.50;;;;;;5150257;27;47065;-15
2022/03/03 02:55:13;;;;;;;7.20;5.80;;;14.40;35.40;;;;;;5149933;27;46913;-15
2022/03/03 02:57:54;;;;;;;6.90;5.90;;;14.40;35.30;;;;;;5150131;27;46908;-15
2022/03/03 03:00:21;;;;;;;8.57;6.20;;;14.40;35.30;;;;;;5150573;27;46975;-15
2022/03/03 03:02:48;;;;;;;7.68;6.25;;;14.50;35.20;;;;;;5150209;27;46890;-16
2022/03/03 03:05:15;;;;;;;8.55;6.50;;;14.50;35.10;;;;;;5149898;27;46902;-15
2022/03/03 03:07:41;;;;;;;7.72;6.22;;;14.50;35.10;;;;;;5149939;27;46798;-14
2022/03/03 03:10:09;;;;;;;7.87;5.80;;;14.50;35.10;;;;;;5149699;27;46855;-15
2022/03/03 03:12:37;;;;;;;7.05;5.85;;;14.50;35.10;;;;;;5150118;27;48020;-14
2022/03/03 03:15:04;;;;;;;7.80;6.20;;;14.50;35.10;;;;;;5149754;27;47509;-15
2022/03/03 03:17:30;;;;;;;7.67;5.90;;;14.50;35.10;;;;;;5150099;27;46924;-16
2022/03/03 03:19:57;;;;;;;7.07;5.85;;;14.50;35.10;;;;;;5150242;27;46947;-20
2022/03/03 03:22:24;;;;;;;6.97;6.13;;;14.40;35.10;;;;;;5149792;27;49095;-20
2022/03/03 03:24:50;;;;;;;9.03;6.50;;;14.40;35.10;;;;;;5149822;27;47281;-19
2022/03/03 03:27:17;;;;;;;7.20;5.88;;;14.40;35.80;;;;;;5150078;27;46776;-20
2022/03/03 03:29:45;;;;;;;7.25;6.45;;;14.40;35.20;;;;;;5149444;27;47263;-20
2022/03/03 03:32:12;;;;;;;8.07;5.90;;;14.40;35.20;;;;;;5149714;27;47921;-20
2022/03/03 03:34:39;;;;;;;6.53;5.80;;;14.40;35.20;;;;;;5149597;27;46906;-20
2022/03/03 03:37:05;;;;;;;6.75;6.00;;;14.30;35.20;;;;;;5148082;27;46866;-20
2022/03/03 03:39:32;;;;;;;7.15;5.68;;;14.30;35.30;;;;;;5149655;27;47090;-20
2022/03/03 03:41:59;;;;;;;7.93;5.75;;;14.30;35.30;;;;;;5149626;27;49065;-19
2022/03/03 03:44:25;;;;;;;7.13;6.22;;;14.20;35.30;;;;;;5149387;27;46871;-20
2022/03/03 03:46:53;;;;;;;8.48;6.05;;;14.20;35.30;;;;;;5149764;27;47116;-20
2022/03/03 03:49:20;;;;;;;8.15;6.13;;;14.20;35.40;;;;;;5149134;27;46997;-20
2022/03/03 03:51:47;;;;;;;8.38;5.90;;;14.10;35.40;;;;;;5149366;27;46811;-20
2022/03/03 03:54:13;;;;;;;8.00;6.25;;;14.10;35.40;;;;;;5149172;27;46906;-20
2022/03/03 03:56:40;;;;;;;7.35;5.93;;;14.10;35.50;;;;;;5149411;27;46908;-19
2022/03/03 03:59:07;;;;;;;7.22;5.85;;;14.10;35.50;;;;;;5149403;27;47165;-20
2022/03/03 04:01:33;;;;;;;8.23;5.60;;;14.00;35.50;;;;;;5149367;27;48120;-20
2022/03/03 04:04:02;;;;;;;7.07;6.20;;;14.00;35.60;;;;;;5148693;27;46870;-19
2022/03/03 04:06:28;;;;;;;7.22;5.78;;;14.00;35.60;;;;;;5149279;27;46944;-20
2022/03/03 04:08:55;;;;;;;7.47;5.68;;;14.00;35.70;;;;;;5149251;27;46975;-20
2022/03/03 04:11:22;;;;;;;7.50;5.78;;;13.90;35.70;;;;;;5148844;27;47849;-20
2022/03/03 04:13:48;;;;;;;7.35;6.00;;;13.90;35.80;;;;;;5149164;27;47288;-20
2022/03/03 04:16:15;;;;;;;7.80;5.85;;;13.80;35.80;;;;;;5148869;27;46870;-15
2022/03/03 04:18:42;;;;;;;7.75;6.20;;;13.80;35.70;;;;;;5149267;27;47308;-15
2022/03/03 04:21:11;;;;;;;7.22;5.80;;;13.80;35.80;;;;;;5148791;27;48228;-15
2022/03/03 04:23:37;;;;;;;7.82;5.93;;;13.80;35.80;;;;;;5148848;27;46962;-14
2022/03/03 04:26:04;;;;;;;7.67;5.80;;;13.80;35.80;;;;;;5148717;27;46988;-16
2022/03/03 04:28:31;;;;;;;8.00;5.53;;;13.80;35.90;;;;;;5149089;27;46982;-16
2022/03/03 04:30:57;;;;;;;7.57;6.03;;;13.70;35.80;;;;;;5148848;27;47949;-19
2022/03/03 04:33:24;;;;;;;8.25;6.28;;;13.70;35.90;;;;;;5148698;27;47007;-15
2022/03/03 04:35:51;;;;;;;7.73;5.47;;;13.70;35.90;;;;;;5148507;27;47004;-20
2022/03/03 04:38:19;;;;;;;8.17;5.70;;;13.70;36.00;;;;;;5148890;27;46941;-20
2022/03/03 04:40:46;;;;;;;7.27;5.90;;;13.70;36.00;;;;;;5148561;27;48950;-20
2022/03/03 04:43:12;;;;;;;6.80;5.80;;;13.70;36.10;;;;;;5148291;27;47408;-19
2022/03/03 04:45:39;;;;;;;7.17;5.90;;;13.60;36.00;;;;;;5148366;27;46775;-19
2022/03/03 04:48:06;;;;;;;6.75;5.53;;;13.60;36.00;;;;;;5148043;27;46894;-19
2022/03/03 04:50:32;;;;;;;7.90;6.10;;;13.60;36.10;;;;;;5148165;27;49210;-20
2022/03/03 04:53:00;;;;;;;6.55;5.63;;;13.60;36.10;;;;;;5147665;27;47136;-15
2022/03/03 04:55:28;;;;;;;7.80;6.20;;;13.60;36.10;;;;;;5148092;27;46919;-14
2022/03/03 04:57:55;;;;;;;6.83;5.63;;;13.60;36.20;;;;;;5148765;27;47062;-15
2022/03/03 05:00:22;;;;;;;7.27;5.90;;;13.50;36.10;;;;;;5148103;27;48090;-15
2022/03/03 05:02:49;;;;;;;6.55;5.75;;;13.50;36.10;;;;;;5146785;27;46991;-15
2022/03/03 05:05:15;;;;;;;6.50;5.43;;;13.50;36.10;;;;;;5147680;27;46984;-15
2022/03/03 05:07:42;;;;;;;7.37;5.67;;;13.50;36.20;;;;;;5148436;27;46896;-19
2022/03/03 05:10:10;;;;;;;6.13;4.83;;;13.50;36.20;;;;;;5147334;27;48048;-15
2022/03/03 05:12:38;;;;;;;7.97;5.87;;;13.50;36.20;;;;;;5147845;27;46975;-15
2022/03/03 05:15:05;;;;;;;7.43;5.40;;;13.60;36.10;;;;;;5147896;27;46857;-20
2022/03/03 05:17:32;;;;;;;7.57;5.77;;;13.70;36.00;;;;;;5148010;27;47106;-20
2022/03/03 05:19:59;;;;;;;8.23;5.63;;;13.80;35.90;;;;;;5147616;27;48370;-20
2022/03/03 05:22:25;;;;;;;6.60;5.87;;;13.90;35.70;;;;;;5147942;27;46895;-20
2022/03/03 05:24:53;;;;;;;8.48;6.03;;;14.00;35.40;;;;;;5147573;27;46834;-19
2022/03/03 05:27:20;;;;;;;7.57;5.83;;;14.10;35.30;;;;;;5147942;27;46890;-19
2022/03/03 05:29:48;;;;;;;8.13;5.55;;;14.20;35.10;;;;;;5147216;27;47746;-20
2022/03/03 05:32:15;;;;;;;6.93;5.27;;;14.20;35.00;;;;;;5147761;27;46883;-14
2022/03/03 05:34:41;;;;;;;6.30;5.63;;;14.30;34.90;;;;;;5147536;27;46851;-14
2022/03/03 05:37:08;;;;;;;8.20;6.23;;;14.30;34.90;;;;;;5147992;27;46945;-15
2022/03/03 05:39:35;;;;;;;6.25;5.32;;;14.30;34.80;;;;;;5147442;27;47014;-14
2022/03/03 05:42:02;;;;;;;7.75;5.97;;;14.30;34.80;;;;;;5147419;27;46861;-15
2022/03/03 05:44:29;;;;;;;7.70;5.78;;;14.30;34.70;;;;;;5147223;27;46892;-19
2022/03/03 05:46:57;;;;;;;7.32;5.90;;;14.30;34.80;;;;;;5147423;27;47247;-20
2022/03/03 05:49:24;;;;;;;7.20;5.72;;;14.30;34.80;;;;;;5147354;27;49107;-20
2022/03/03 05:51:50;;;;;;;6.65;5.40;;;14.30;34.80;;;;;;5147477;27;46947;-19
2022/03/03 05:54:17;;;;;;;7.23;5.30;;;14.20;34.70;;;;;;5147223;27;46887;-16
2022/03/03 05:56:46;;;;;;;7.35;5.95;;;14.20;34.70;;;;;;5147322;27;47107;-16
2022/03/03 05:59:14;;;;;;;8.43;5.93;;;14.20;34.80;;;;;;5146934;27;48091;-15
2022/03/03 06:01:42;;;;;;;8.07;6.10;;;14.20;34.80;;;;;;5150688;27;47482;-15
2022/03/03 06:04:12;;;;;;;8.63;5.73;;;14.20;34.90;;;;;;5151113;27;46879;-15
2022/03/03 06:06:39;;;;;;;8.93;5.90;;;14.10;34.80;;;;;;5151534;27;47186;-20
2022/03/03 06:09:10;;;;;;;7.63;6.13;;;14.10;34.90;;;;;;5149998;27;49119;-14
2022/03/03 06:11:54;;;;;;;7.80;5.53;;;14.10;34.90;;;;;;5130181;27;46855;-15
2022/03/03 06:14:24;;;;;;;7.50;5.80;;;14.00;34.90;;;;;;5129906;27;46817;-15
2022/03/03 06:16:51;;;;;;;8.27;6.70;;;14.00;35.00;;;;;;5130426;27;46975;-15
2022/03/03 06:19:20;;;;;;;6.67;5.60;;;13.90;35.00;;;;;;5129652;27;47874;-15
2022/03/03 06:21:47;;;;;;;8.10;6.20;;;13.90;35.00;;;;;;5129811;27;47467;-15
2022/03/03 06:24:13;;;;;;;7.50;5.83;;;13.90;35.10;;;;;;5129919;27;46781;-14
2022/03/03 06:26:40;;;;;;;8.40;6.00;;;13.90;35.10;;;;;;5130138;27;47236;-20
2022/03/03 06:29:07;;;;;;;6.80;5.77;;;13.90;35.20;;;;;;5129659;27;47812;-20
2022/03/03 06:31:33;;;;;;;8.57;5.32;;;13.80;35.20;;;;;;5129436;27;47097;-20
2022/03/03 06:34:00;;;;;;;8.38;5.70;;;13.80;35.30;;;;;;5129552;27;46900;-20
2022/03/03 06:36:28;;;;;;;7.80;6.50;;;13.80;35.30;;;;;;5129725;27;46883;-20
2022/03/03 06:38:55;;;;;;;7.70;5.93;;;13.80;35.30;;;;;;5129526;27;49072;-20
2022/03/03 06:41:22;;;;;;;9.10;6.13;;;13.70;35.40;;;;;;5129742;27;46969;-20
2022/03/03 06:43:49;;;;;;;8.50;6.00;;;13.70;35.40;;;;;;5129768;27;46887;-20
2022/03/03 06:46:18;;;;;;;7.90;5.67;;;13.70;35.40;;;;;;5129839;27;46942;-20
2022/03/03 06:48:45;;;;;;;10.60;6.05;;;13.70;35.50;;;;;;5129294;27;46919;-15
2022/03/03 06:51:13;;;;;;;8.20;6.40;;;13.70;35.50;;;;;;5129372;27;46964;-15
2022/03/03 06:53:42;;;;;;;7.63;5.93;;;13.70;35.60;;;;;;5129559;27;46926;-15
2022/03/03 06:56:09;;;;;;;7.30;6.15;;;13.60;35.50;;;;;;5129665;27;46927;-15
2022/03/03 06:58:36;;;;;;;9.97;6.13;;;13.60;35.50;;;;;;5129129;27;48770;-15
2022/03/03 07:01:05;;;;;;;9.33;5.87;;;13.60;35.60;;;;;;5128911;27;46931;-15
2022/03/03 07:03:32;;;;;;;9.03;6.67;;;13.60;35.70;;;;;;5129399;27;46899;-15
2022/03/03 07:05:59;;;;;;;10.80;6.40;;;13.60;35.60;;;;;;5129012;27;47362;-15
2022/03/03 07:08:25;;;;;;;7.77;6.13;;;13.60;35.70;;;;;;5129105;27;49189;-15
2022/03/03 07:10:54;;;;;;;8.95;5.95;;;13.60;35.80;;;;;;5128136;27;47081;-15
2022/03/03 07:13:21;;;;;;;7.40;5.88;;;13.60;35.80;;;;;;5129155;27;46922;-15
2022/03/03 07:15:50;;;;;;;8.73;5.80;;;13.60;35.40;;;;;;5128948;27;46869;-14
2022/03/03 07:18:18;;;;;;;8.65;5.95;;;13.60;35.80;;;;;;5129387;27;47750;-15
2022/03/03 07:20:59;;;;;;;8.33;5.60;;;13.60;35.90;;;;;;5128522;27;46763;-14
2022/03/03 07:23:32;;;;;;;9.00;6.60;;;13.60;35.80;;;;;;5129313;27;46996;-15
2022/03/03 07:26:01;;;;;;;8.37;6.00;;;13.60;35.90;;;;;;5128829;27;46861;-15
2022/03/03 07:28:28;;;;;;;10.77;6.47;;;13.60;35.90;;;;;;5128468;27;47060;-15
2022/03/03 07:30:55;;;;;;;7.93;6.10;;;13.60;35.90;;;;;;5128211;27;46831;-15
2022/03/03 07:33:26;;;;;;;7.10;6.40;;;13.50;35.90;;;;;;5128911;27;46896;-16
2022/03/03 07:35:58;;;;;;;8.97;6.50;;;13.50;35.90;;;;;;5128855;27;47220;-15
2022/03/03 07:38:26;;;;;;;7.80;6.43;;;13.50;36.00;;;;;;5128537;27;46877;-14
2022/03/03 07:40:53;;;;;;;10.10;6.80;;;13.50;36.00;;;;;;5128541;27;47041;-14
2022/03/03 07:43:21;;;;;;;8.67;6.13;;;13.50;36.00;;;;;;5128412;27;46826;-14
2022/03/03 07:45:48;;;;;;;8.43;6.17;;;13.50;36.00;;;;;;5128440;27;46796;-14
2022/03/03 07:48:15;;;;;;;9.00;6.67;;;13.60;36.00;;;;;;5128217;27;48714;-19
2022/03/03 07:50:42;;;;;;;7.80;6.47;;;13.70;36.00;;;;;;5128087;27;47593;-19
2022/03/03 07:53:10;;;;;;;9.30;6.10;;;13.80;35.90;;;;;;5128692;27;46818;-20
2022/03/03 07:55:45;;;;;;;8.30;6.20;;;13.90;35.80;;;;;;5128211;27;47276;-20
2022/03/03 07:58:13;;;;;;;8.40;6.40;;;14.00;35.60;;;;;;5128493;27;47945;-15
2022/03/03 08:00:46;;;;;;;7.43;6.33;;;14.00;35.40;;;;;;5128061;27;46863;-19
2022/03/03 08:03:16;;;;;;;10.37;6.60;;;14.10;35.30;;;;;;5128120;27;46751;-20
2022/03/03 08:05:43;;;;;;;6.30;5.70;;;14.10;35.30;;;;;;5128042;27;46929;-20
2022/03/03 08:08:11;;;;;;;8.40;6.47;;;14.20;35.30;;;;;;5128175;27;48121;-20
2022/03/03 08:10:40;;;;;;;8.75;6.35;;;14.20;35.80;;;;;;5127730;27;46976;-20
2022/03/03 08:13:07;;;;;;;7.50;5.90;;;14.20;35.20;;;;;;5128252;27;46801;-19
2022/03/03 08:15:38;;;;;;;7.77;6.23;;;14.30;35.20;;;;;;5128206;27;46919;-15
2022/03/03 08:18:06;;;;;;;8.00;5.90;;;14.30;35.20;;;;;;5127927;27;47778;-15
2022/03/03 08:20:33;;;;;;;7.40;5.82;;;14.30;35.20;;;;;;5127778;27;47027;-14
2022/03/03 08:23:01;;;;;;;8.00;6.10;;;14.30;35.20;;;;;;5126536;27;47059;-19
2022/03/03 08:25:27;;;;;;;7.33;5.80;;;14.30;35.30;;;;;;5127133;27;46810;-19
2022/03/03 08:27:54;;;;;;;8.83;6.17;;;14.30;35.30;;;;;;5127601;27;46909;-19
2022/03/03 08:30:21;;;;;;;9.30;6.30;;;14.30;35.30;;;;;;5127684;27;46912;-19
2022/03/03 08:32:49;;;;;;;8.05;5.95;;;14.30;35.30;;;;;;5127783;27;47008;-19
2022/03/03 08:35:19;;;;;;;9.70;5.87;;;14.30;35.30;;;;;;5128045;27;47204;-15
2022/03/03 08:37:59;;;;;;;7.03;5.57;;;14.30;35.30;;;;;;5127874;27;46968;-20
2022/03/03 08:40:25;;;;;;;7.05;6.13;;;14.30;35.40;;;;;;5127996;27;48339;-14
2022/03/03 08:42:56;;;;;;;8.90;6.00;;;14.30;35.40;;;;;;5127569;27;46925;-15
2022/03/03 08:45:23;;;;;;;6.97;5.70;;;14.30;35.40;;;;;;5127945;27;46798;-14
2022/03/03 08:47:55;;;;;;;7.27;5.83;;;14.30;35.50;;;;;;5127316;27;47053;-15
2022/03/03 08:50:23;;;;;;;7.90;6.10;;;14.20;35.10;;;;;;5127340;27;47248;-19
2022/03/03 08:52:50;;;;;;;8.13;5.80;;;14.30;35.60;;;;;;5127597;27;46920;-20
2022/03/03 08:55:16;;;;;;;8.30;6.07;;;14.20;35.60;;;;;;5127897;27;47121;-19
2022/03/03 08:57:43;;;;;;;8.10;6.00;;;14.30;35.60;;;;;;5127077;27;48121;-19
2022/03/03 09:00:11;;;;;;;7.40;5.90;;;14.20;35.60;;;;;;5126955;27;47412;-19
2022/03/03 09:02:40;;;;;;;8.47;6.17;;;14.20;35.70;;;;;;5127689;27;46887;-20
2022/03/03 09:05:08;;;;;;;10.00;5.80;;;14.20;35.70;;;;;;5127426;27;46790;-20
2022/03/03 09:07:36;;;;;;;7.53;5.97;;;14.20;35.70;;;;;;5127089;27;48832;-15
2022/03/03 09:10:03;;;;;;;7.47;6.03;;;14.20;35.80;;;;;;5126755;27;46953;-14
2022/03/03 09:12:30;;;;;;;7.50;5.18;;;14.30;35.80;;;;;;5126550;27;46880;-15
2022/03/03 09:14:57;;;;;;;7.63;5.83;;;14.20;35.80;;;;;;5126182;27;46877;-19
2022/03/03 09:17:23;;;;;;;8.23;6.07;;;14.30;35.80;;;;;;5126864;27;48042;-19
2022/03/03 09:19:50;;;;;;;7.03;5.73;;;14.30;36.00;;;;;;5126937;27;46955;-20
2022/03/03 09:22:17;;;;;;;6.80;5.37;;;14.30;36.00;;;;;;5127383;27;46891;-14
2022/03/03 09:24:45;;;;;;;10.05;5.93;;;14.30;36.00;;;;;;5126866;27;46938;-14
2022/03/03 09:27:12;;;;;;;7.82;5.82;;;14.30;36.00;;;;;;5126645;27;48870;-15
2022/03/03 09:29:39;;;;;;;8.10;5.60;;;14.30;36.00;;;;;;5126557;27;46908;-19
2022/03/03 09:32:09;;;;;;;8.43;6.20;;;14.30;36.10;;;;;;5126958;27;47154;-15
2022/03/03 09:34:36;;;;;;;6.43;5.23;;;14.30;36.00;;;;;;5126701;27;47347;-15
2022/03/03 09:37:03;;;;;;;6.93;5.70;;;14.30;36.10;;;;;;5126578;27;47723;-15
2022/03/03 09:39:29;;;;;;;6.93;6.03;;;14.30;35.90;;;;;;5125465;27;47110;-14
2022/03/03 09:41:58;;;;;;;6.77;5.43;;;14.30;36.10;;;;;;5126706;27;47050;-15
2022/03/03 09:44:25;;;;;;;7.60;5.87;;;14.30;36.10;;;;;;5126361;27;47106;-14
2022/03/03 09:46:51;;;;;;;7.53;5.60;;;14.30;36.10;;;;;;5126356;27;49051;-14
2022/03/03 09:49:20;;;;;;;7.80;5.80;;;14.40;36.20;;;;;;5125530;27;46979;-15
2022/03/03 09:51:47;;;;;;;6.95;5.47;;;14.30;35.90;;;;;;5126273;27;47006;-15
2022/03/03 09:54:14;;;;;;;8.48;5.97;;;14.40;36.00;;;;;;5124919;27;47188;-14
2022/03/03 09:56:41;;;;;;;7.03;5.55;;;14.40;36.20;;;;;;5125480;27;47926;-14
2022/03/03 09:59:09;;;;;;;8.15;6.13;;;14.40;36.20;;;;;;5125635;27;46881;-14
2022/03/03 10:01:36;;;;;;;7.67;5.83;;;14.40;36.20;;;;;;5126585;27;46828;-14
2022/03/03 10:04:14;;;;;;;7.40;5.80;;;14.40;36.20;;;;;;5126573;27;46918;-14
2022/03/03 10:06:41;;;;;;;6.80;5.40;;;14.50;36.20;;;;;;5126468;27;48792;-13
2022/03/03 10:09:08;;;;;;;7.65;5.47;;;14.40;36.20;;;;;;5144814;27;47159;-14
2022/03/03 10:11:40;;;;;;;5.82;5.25;;;14.50;36.20;;;;;;5146552;27;46861;-14
2022/03/03 10:14:06;;;;;;;5.93;5.32;;;14.50;36.20;;;;;;5146649;27;46906;-13
2022/03/03 10:16:34;;;;;;;11.13;5.80;;;14.50;36.20;;;;;;5145663;27;47915;-14
2022/03/03 10:19:03;;;;;;;10.20;6.10;;;14.50;36.30;;;;;;5146426;27;47449;-13
2022/03/03 10:21:30;;;;;;;13.23;7.43;;;14.60;36.40;;;;;;5146891;27;46898;-14
2022/03/03 10:23:57;;;;;;;12.05;7.78;;;14.60;36.60;;;;;;5147211;27;47151;-15
2022/03/03 10:26:35;;;;;;;15.73;9.20;;;14.70;36.50;;;;;;5146291;27;48232;-15
2022/03/03 10:29:02;;;;;;;24.75;10.38;;;14.70;36.40;;;;;;5146599;27;47422;-14
2022/03/03 10:31:29;;;;;;;19.93;9.30;;;14.80;36.60;;;;;;5147258;27;46967;-14
2022/03/03 10:33:57;;;;;;;16.50;8.50;;;14.90;36.60;;;;;;5147089;27;47187;-14
2022/03/03 10:36:24;;;;;;;15.38;8.88;;;15.00;36.50;;;;;;5147008;27;48077;-14
2022/03/03 10:38:53;;;;;;;14.38;9.13;;;15.00;36.70;;;;;;5146636;27;47110;-14
2022/03/03 10:41:36;;;;;;;14.25;9.55;;;15.10;36.60;;;;;;5146901;27;46961;-14
2022/03/03 10:44:05;;;;;;;15.63;9.48;;;15.10;36.30;;;;;;5146964;27;46991;-14
2022/03/03 10:46:32;;;;;;;16.42;9.38;;;15.20;36.30;;;;;;5148669;27;48738;-14
2022/03/03 10:49:01;;;;;;;17.60;10.75;;;15.30;36.60;;;;;;5149948;27;46986;-14
2022/03/03 10:51:27;;;;;;;14.18;10.80;;;15.30;36.40;;;;;;5150249;27;47002;-14
2022/03/03 10:53:56;;;;;;;13.93;10.15;;;15.40;36.20;;;;;;5150225;27;46984;-14
2022/03/03 10:56:23;;;;;;;19.50;10.50;;;15.40;36.20;;;;;;5149861;27;47078;-15
2022/03/03 10:58:52;;;;;;;16.45;10.07;;;15.40;36.10;;;;;;5150926;27;46989;-14
2022/03/03 11:01:20;;;;;;;15.07;9.98;;;15.50;36.00;;;;;;5150512;27;46975;-14
2022/03/03 11:03:49;;;;;;;15.70;10.00;;;15.50;36.10;;;;;;5150303;27;47132;-14
2022/03/03 11:06:19;;;;;;;19.38;10.13;;;15.50;36.00;;;;;;5150356;27;46891;-13
2022/03/03 11:08:47;;;;;;;16.42;10.18;;;15.60;35.90;;;;;;5149385;27;47189;-14
2022/03/03 11:11:14;;;;;;;13.50;9.82;;;15.60;35.90;;;;;;5149899;27;46816;-14
2022/03/03 11:13:41;;;;;;;13.32;9.65;;;15.70;35.80;;;;;;5149543;27;46920;-14
2022/03/03 11:16:07;;;;;;;17.70;12.02;;;15.70;35.60;;;;;;5149706;27;48168;-14
2022/03/03 11:18:34;;;;;;;19.40;14.88;;;15.80;35.80;;;;;;5149661;27;46862;-13
2022/03/03 11:21:01;;;;;;;26.90;16.45;;;15.70;35.70;;;;;;5148503;27;46877;-14
2022/03/03 11:23:42;;;;;;;22.77;15.65;;;15.50;35.80;;;;;;5148949;27;46907;-13
2022/03/03 11:26:21;;;;;;;22.23;15.13;;;15.40;36.00;;;;;;5140796;27;46875;-15
2022/03/03 11:28:59;;;;;;;23.63;15.68;;;15.40;36.10;;;;;;5149740;27;46975;-15
2022/03/03 11:31:30;;;;;;;25.30;15.95;;;15.40;36.70;;;;;;5149628;27;46868;-15
2022/03/03 11:34:22;;;;;;;21.30;14.35;;;15.50;36.40;;;;;;5149484;27;47213;-14
2022/03/03 11:36:49;;;;;;;21.30;13.45;;;15.70;36.00;;;;;;5149281;27;47964;-14
2022/03/03 11:39:37;;;;;;;20.27;13.07;;;15.80;35.80;;;;;;5149242;27;46931;-14
2022/03/03 11:42:26;;;;;;;19.38;13.40;;;15.90;35.60;;;;;;5149531;27;46942;-13
2022/03/03 11:44:54;;;;;;;20.33;13.88;;;16.00;35.50;;;;;;5148972;27;47200;-14
2022/03/03 11:47:22;;;;;;;23.10;13.82;;;16.10;35.40;;;;;;5149395;27;48032;-14
2022/03/03 11:50:16;;;;;;;19.33;13.23;;;16.20;35.30;;;;;;5149208;27;47149;-14
2022/03/03 11:52:45;;;;;;;17.17;12.13;;;16.20;35.20;;;;;;5148970;27;46799;-15
2022/03/03 11:55:43;;;;;;;17.70;12.30;;;16.30;35.10;;;;;;5147751;27;47122;-15
2022/03/03 11:58:11;;;;;;;22.73;12.95;;;16.40;35.40;;;;;;5041381;28;47074;-14
2022/03/03 12:00:41;;;;;;;19.65;12.88;;;16.40;35.50;;;;;;5124184;27;47064;-14
2022/03/03 12:03:08;;;;;;;24.83;13.77;;;16.50;35.60;;;;;;5148796;27;46986;-14
2022/03/03 12:05:37;;;;;;;23.08;13.48;;;16.60;35.90;;;;;;5148179;27;46931;-13
2022/03/03 12:08:05;;;;;;;19.45;12.85;;;16.60;35.80;;;;;;5148047;27;46916;-14
2022/03/03 12:10:32;;;;;;;21.10;12.77;;;16.70;36.20;;;;;;5148079;27;46969;-14
2022/03/03 12:13:26;;;;;;;19.52;12.93;;;16.70;36.00;;;;;;5148023;27;46883;-13
2022/03/03 12:16:28;;;;;;;22.17;13.52;;;16.80;35.90;;;;;;5148338;27;46894;-13
2022/03/03 12:19:06;;;;;;;19.15;12.02;;;16.90;35.80;;;;;;5148066;27;46831;-13
2022/03/03 12:21:35;;;;;;;18.23;11.98;;;17.00;35.60;;;;;;5148741;27;46955;-14
2022/03/03 12:24:31;;;;;;;19.48;12.57;;;17.00;35.40;;;;;;5148802;27;46894;-13
2022/03/03 12:27:14;;;;;;;16.92;11.93;;;17.10;35.40;;;;;;5148998;27;47296;-13
2022/03/03 12:29:57;;;;;;;18.58;11.52;;;17.10;35.20;;;;;;5147453;27;49329;-13
2022/03/03 12:32:28;;;;;;;16.48;11.48;;;17.20;35.30;;;;;;5147562;27;47205;-13
2022/03/03 12:34:55;;;;;;;19.42;10.77;;;17.20;35.00;;;;;;5148397;27;47038;-13
2022/03/03 12:37:21;;;;;;;19.45;11.23;;;17.30;35.10;;;;;;5148930;27;47252;-14
2022/03/03 12:39:49;;;;;;;19.92;11.07;;;17.30;35.00;;;;;;5148145;27;46975;-14
2022/03/03 12:42:18;;;;;;;18.10;11.02;;;17.40;34.90;;;;;;5148718;27;47439;-14
2022/03/03 12:44:46;;;;;;;15.45;10.95;;;17.40;34.80;;;;;;5148363;27;46875;-14
2022/03/03 12:47:15;;;;;;;13.32;9.60;;;17.40;34.60;;;;;;5148061;27;46883;-14
2022/03/03 12:49:44;;;;;;;17.45;9.90;;;17.50;34.70;;;;;;5148429;27;48287;-14